Time;durP1;ratioP1;P1;durP2;ratioP2;P2;SDS_P1;SDS_P2;PMS_P1;PMS_P2;Temp;Humidity;BMP_temperature;BMP_pressure;BME280_temperature;BME280_humidity;BME280_pressure;Samples;Min_cycle;Max_cycle;Signal;HPM_P1;HPM_P2
2021/11/03 00:00:41;;;;;;;18.37;16.67;;;11.90;99.90;;;;;;5102451;28;20492;-71
2021/11/03 00:03:13;;;;;;;16.47;14.97;;;11.90;99.90;;;;;;5098202;28;20951;-70
2021/11/03 00:05:46;;;;;;;18.23;16.60;;;11.90;99.90;;;;;;5109821;28;20454;-70
2021/11/03 00:08:21;;;;;;;17.40;15.80;;;12.00;99.90;;;;;;5105886;28;20461;-71
2021/11/03 00:10:54;;;;;;;17.70;15.90;;;11.80;99.90;;;;;;5101129;28;20473;-70
2021/11/03 00:13:26;;;;;;;16.60;15.10;;;11.70;99.90;;;;;;5093759;28;20485;-70
2021/11/03 00:15:58;;;;;;;17.63;15.73;;;11.70;99.90;;;;;;5104382;28;20461;-70
2021/11/03 00:18:29;;;;;;;17.53;15.67;;;11.60;99.90;;;;;;5092972;28;20469;-70
2021/11/03 00:21:01;;;;;;;17.77;15.93;;;11.50;99.90;;;;;;5101279;28;20449;-70
2021/11/03 00:23:34;;;;;;;17.50;15.80;;;11.50;99.90;;;;;;5097309;28;20450;-70
2021/11/03 00:26:05;;;;;;;16.20;14.70;;;11.50;99.90;;;;;;5091856;28;20904;-70
2021/11/03 00:28:36;;;;;;;17.10;15.30;;;11.50;99.90;;;;;;5089773;28;20944;-70
2021/11/03 00:31:07;;;;;;;16.40;14.70;;;11.40;99.90;;;;;;5105213;28;20453;-71
2021/11/03 00:33:38;;;;;;;18.37;15.80;;;11.30;99.90;;;;;;5102672;28;20481;-72
2021/11/03 00:36:09;;;;;;;16.93;15.07;;;11.40;99.90;;;;;;5104459;28;20469;-70
2021/11/03 00:38:42;;;;;;;17.00;15.30;;;11.30;99.90;;;;;;5099465;28;20461;-70
2021/11/03 00:41:13;;;;;;;16.27;14.67;;;11.30;99.90;;;;;;5095991;28;20476;-70
2021/11/03 00:43:43;;;;;;;16.10;14.50;;;11.40;99.90;;;;;;5108866;28;20457;-70
2021/11/03 00:46:14;;;;;;;17.67;15.97;;;11.30;99.90;;;;;;5109672;28;20450;-71
2021/11/03 00:48:45;;;;;;;17.70;15.90;;;11.30;99.90;;;;;;5107567;28;20946;-71
2021/11/03 00:51:16;;;;;;;16.97;15.17;;;11.30;99.90;;;;;;5111782;28;20556;-70
2021/11/03 00:53:52;;;;;;;16.83;14.93;;;11.20;99.90;;;;;;5101647;28;20483;-70
2021/11/03 00:56:23;;;;;;;15.67;14.10;;;11.20;99.90;;;;;;5111307;28;20918;-72
2021/11/03 00:58:54;;;;;;;17.37;15.67;;;11.20;99.90;;;;;;5102815;28;20467;-71
2021/11/03 01:01:24;;;;;;;17.90;16.20;;;11.20;99.90;;;;;;5098884;28;20470;-71
2021/11/03 01:03:56;;;;;;;20.03;18.00;;;11.20;99.90;;;;;;5090359;28;20537;-70
2021/11/03 01:06:27;;;;;;;21.07;18.87;;;11.20;99.90;;;;;;5089947;28;20913;-69
2021/11/03 01:08:59;;;;;;;21.13;18.87;;;11.10;99.90;;;;;;5099066;28;20462;-71
2021/11/03 01:11:30;;;;;;;21.60;19.50;;;11.10;99.90;;;;;;5089556;28;20469;-70
2021/11/03 01:14:04;;;;;;;21.50;19.23;;;11.20;99.90;;;;;;5099058;28;20507;-70
2021/11/03 01:16:35;;;;;;;23.70;21.30;;;11.10;99.90;;;;;;5098271;28;20449;-71
2021/11/03 01:19:07;;;;;;;23.17;20.67;;;11.10;99.90;;;;;;5106103;28;20472;-71
2021/11/03 01:21:39;;;;;;;22.30;19.93;;;11.10;99.90;;;;;;5111024;28;20453;-70
2021/11/03 01:24:12;;;;;;;23.20;20.80;;;11.10;99.90;;;;;;5103112;28;20469;-70
2021/11/03 01:26:43;;;;;;;22.27;19.87;;;11.10;99.90;;;;;;5100133;28;20803;-70
2021/11/03 01:29:13;;;;;;;21.70;19.43;;;11.20;99.90;;;;;;5093523;28;20466;-71
2021/11/03 01:31:44;;;;;;;20.30;18.23;;;11.10;99.90;;;;;;5103552;28;20449;-71
2021/11/03 01:34:15;;;;;;;20.10;18.20;;;11.10;99.90;;;;;;5104897;28;20489;-70
2021/11/03 01:36:46;;;;;;;22.30;18.43;;;11.20;99.90;;;;;;5099965;28;20458;-71
2021/11/03 01:39:18;;;;;;;18.30;16.60;;;11.10;99.90;;;;;;5104056;28;20472;-71
2021/11/03 01:41:53;;;;;;;19.07;17.07;;;11.10;99.90;;;;;;5110075;28;20449;-70
2021/11/03 01:44:23;;;;;;;16.67;15.10;;;11.10;99.90;;;;;;5104547;28;20516;-69
2021/11/03 01:46:57;;;;;;;16.97;15.20;;;11.00;99.90;;;;;;5097969;28;20461;-70
2021/11/03 01:49:29;;;;;;;17.10;14.40;;;11.00;99.90;;;;;;5096078;28;20459;-69
2021/11/03 01:52:03;;;;;;;16.10;13.70;;;11.00;99.90;;;;;;5100818;28;20688;-70
2021/11/03 01:54:40;;;;;;;14.57;13.17;;;11.00;99.90;;;;;;5088213;28;20497;-70
2021/11/03 01:57:15;;;;;;;13.30;12.00;;;11.00;99.90;;;;;;5104374;28;20553;-70
2021/11/03 01:59:48;;;;;;;14.10;12.70;;;10.90;99.90;;;;;;5098220;28;20483;-70
2021/11/03 02:02:22;;;;;;;14.50;13.00;;;10.90;99.90;;;;;;5101335;28;20472;-69
2021/11/03 02:04:53;;;;;;;13.73;12.43;;;11.00;99.90;;;;;;5098852;28;20465;-70
2021/11/03 02:07:27;;;;;;;12.70;11.47;;;10.90;99.90;;;;;;5097761;28;20544;-70
2021/11/03 02:10:00;;;;;;;12.87;11.57;;;11.00;99.90;;;;;;5101063;28;20449;-70
2021/11/03 02:12:32;;;;;;;12.00;10.80;;;11.00;99.90;;;;;;5097496;28;20461;-70
2021/11/03 02:15:03;;;;;;;10.53;9.53;;;11.00;99.90;;;;;;5088266;28;20846;-70
2021/11/03 02:17:35;;;;;;;10.60;9.50;;;11.00;99.90;;;;;;5097503;28;20986;-70
2021/11/03 02:20:11;;;;;;;11.90;10.60;;;11.10;99.90;;;;;;5096842;28;20852;-70
2021/11/03 02:22:49;;;;;;;9.43;8.57;;;11.10;99.90;;;;;;5099009;28;20536;-70
2021/11/03 02:25:25;;;;;;;10.20;9.27;;;11.10;99.90;;;;;;5099183;28;21015;-70
2021/11/03 02:27:58;;;;;;;10.23;8.70;;;11.10;99.90;;;;;;5101926;28;20444;-70
2021/11/03 02:30:29;;;;;;;9.40;8.37;;;11.10;99.90;;;;;;5087816;28;20454;-70
2021/11/03 02:33:03;;;;;;;11.63;9.47;;;11.10;99.90;;;;;;5096184;28;20998;-70
2021/11/03 02:35:34;;;;;;;9.87;8.87;;;11.10;99.90;;;;;;5088483;28;20504;-70
2021/11/03 02:38:07;;;;;;;10.70;9.60;;;11.10;99.90;;;;;;5109227;28;20446;-71
2021/11/03 02:40:47;;;;;;;10.33;9.33;;;11.10;99.90;;;;;;5103464;28;20453;-71
2021/11/03 02:43:24;;;;;;;10.00;9.10;;;11.10;99.90;;;;;;5100642;28;20449;-70
2021/11/03 02:45:56;;;;;;;10.63;8.83;;;11.10;99.90;;;;;;5094943;28;20468;-70
2021/11/03 02:48:31;;;;;;;9.80;8.80;;;11.10;99.90;;;;;;5104523;28;20446;-70
2021/11/03 02:51:09;;;;;;;9.67;8.73;;;11.10;99.90;;;;;;5096746;28;20463;-70
2021/11/03 02:53:43;;;;;;;11.37;10.17;;;11.10;99.90;;;;;;5111660;28;20448;-70
2021/11/03 02:56:18;;;;;;;8.97;8.07;;;11.10;99.90;;;;;;5107706;28;20582;-70
2021/11/03 02:58:50;;;;;;;9.37;8.07;;;11.10;99.90;;;;;;5103074;28;20460;-70
2021/11/03 03:01:30;;;;;;;8.87;7.97;;;11.10;99.90;;;;;;5104292;28;20478;-70
2021/11/03 03:04:02;;;;;;;9.37;8.47;;;11.00;99.90;;;;;;5095813;28;20450;-70
2021/11/03 03:06:34;;;;;;;8.40;7.60;;;11.10;99.90;;;;;;5091582;28;20447;-69
2021/11/03 03:09:06;;;;;;;9.13;8.17;;;11.20;99.90;;;;;;5101479;28;20473;-69
2021/11/03 03:11:41;;;;;;;8.73;7.93;;;11.30;99.90;;;;;;5091720;28;20450;-70
2021/11/03 03:14:13;;;;;;;8.85;8.15;;;11.30;99.90;;;;;;5102577;28;20976;-70
2021/11/03 03:16:43;;;;;;;8.17;7.47;;;11.30;99.90;;;;;;5113386;28;20211;-70
2021/11/03 03:19:15;;;;;;;9.03;8.30;;;11.30;99.90;;;;;;5109508;28;20454;-70
2021/11/03 03:21:46;;;;;;;7.80;7.00;;;11.30;99.90;;;;;;5102692;28;20461;-70
2021/11/03 03:24:18;;;;;;;8.00;7.27;;;11.30;99.90;;;;;;5099908;28;20451;-70
2021/11/03 03:26:51;;;;;;;8.70;7.80;;;11.40;99.90;;;;;;5101956;27;20809;-69
2021/11/03 03:29:22;;;;;;;8.70;7.47;;;11.40;99.90;;;;;;5105190;28;20553;-69
2021/11/03 03:31:53;;;;;;;7.83;7.13;;;11.40;99.90;;;;;;5101291;28;20455;-70
2021/11/03 03:34:26;;;;;;;10.30;7.83;;;11.40;99.90;;;;;;5099466;28;20454;-70
2021/11/03 03:36:57;;;;;;;7.73;6.93;;;11.40;99.90;;;;;;5100545;28;20850;-69
2021/11/03 03:39:29;;;;;;;7.80;7.03;;;11.30;99.90;;;;;;5098950;28;20446;-70
2021/11/03 03:42:04;;;;;;;8.03;7.27;;;11.30;99.90;;;;;;5109984;28;20445;-70
2021/11/03 03:44:35;;;;;;;7.53;6.80;;;11.30;99.90;;;;;;5101594;28;20543;-69
2021/11/03 03:47:06;;;;;;;7.20;6.50;;;11.30;99.90;;;;;;5097503;28;20450;-69
2021/11/03 03:49:37;;;;;;;7.70;6.80;;;11.30;99.90;;;;;;5099358;28;20526;-69
2021/11/03 03:52:09;;;;;;;9.83;7.30;;;11.30;99.90;;;;;;5112579;28;20923;-69
2021/11/03 03:54:40;;;;;;;8.30;7.50;;;11.20;99.90;;;;;;5090298;28;20798;-69
2021/11/03 03:57:12;;;;;;;8.60;7.50;;;11.20;99.90;;;;;;5106548;28;20450;-69
2021/11/03 03:59:43;;;;;;;7.67;6.97;;;11.30;99.90;;;;;;5099385;28;20461;-69
2021/11/03 04:02:14;;;;;;;9.63;7.80;;;11.20;99.90;;;;;;5112063;28;20473;-69
2021/11/03 04:04:45;;;;;;;8.40;7.60;;;11.20;99.90;;;;;;5090353;28;20549;-69
2021/11/03 04:07:16;;;;;;;7.40;6.77;;;11.20;99.90;;;;;;5107146;28;20454;-69
2021/11/03 04:09:47;;;;;;;7.83;7.13;;;11.20;99.90;;;;;;5101939;28;20457;-69
2021/11/03 04:12:19;;;;;;;8.30;7.60;;;11.30;99.90;;;;;;5107143;28;20507;-69
2021/11/03 04:14:50;;;;;;;7.57;6.87;;;11.30;99.90;;;;;;5107125;28;20935;-69
2021/11/03 04:17:21;;;;;;;8.90;8.00;;;11.30;99.90;;;;;;5091544;28;20884;-69
2021/11/03 04:19:51;;;;;;;8.93;8.03;;;11.40;99.90;;;;;;5091524;28;20453;-69
2021/11/03 04:22:22;;;;;;;8.20;7.50;;;11.40;99.90;;;;;;5103521;28;20551;-69
2021/11/03 04:24:53;;;;;;;8.00;7.30;;;11.40;99.90;;;;;;5096840;28;20445;-69
2021/11/03 04:27:25;;;;;;;9.33;7.90;;;11.30;99.90;;;;;;5103359;28;20461;-69
2021/11/03 04:29:56;;;;;;;6.97;6.27;;;11.30;99.90;;;;;;5097273;28;20461;-69
2021/11/03 04:32:27;;;;;;;7.73;7.03;;;11.30;99.90;;;;;;5094612;27;20447;-69
2021/11/03 04:34:58;;;;;;;10.10;7.57;;;11.30;99.90;;;;;;5092868;28;20788;-69
2021/11/03 04:37:28;;;;;;;8.30;7.60;;;11.30;99.90;;;;;;5100151;28;20481;-69
2021/11/03 04:39:59;;;;;;;8.67;7.30;;;11.20;99.90;;;;;;5100221;28;20452;-68
2021/11/03 04:42:32;;;;;;;8.70;7.77;;;11.20;99.90;;;;;;5090764;28;20561;-68
2021/11/03 04:45:02;;;;;;;7.83;7.03;;;11.20;99.90;;;;;;5101368;28;20454;-69
2021/11/03 04:47:33;;;;;;;8.07;7.27;;;11.20;99.90;;;;;;5090255;28;20808;-68
2021/11/03 04:50:05;;;;;;;7.50;6.77;;;11.20;99.90;;;;;;5103041;28;20982;-69
2021/11/03 04:52:36;;;;;;;7.93;7.13;;;11.20;99.90;;;;;;5108426;28;20446;-69
2021/11/03 04:55:08;;;;;;;7.90;7.10;;;11.20;99.90;;;;;;5100810;28;20561;-69
2021/11/03 04:57:40;;;;;;;8.10;7.40;;;11.20;99.90;;;;;;5102183;28;20458;-69
2021/11/03 05:00:17;;;;;;;7.40;6.70;;;11.20;99.90;;;;;;5098325;28;20457;-69
2021/11/03 05:02:48;;;;;;;7.47;6.87;;;11.20;99.90;;;;;;5108733;28;21499;-69
2021/11/03 05:05:19;;;;;;;7.90;7.10;;;11.20;99.90;;;;;;5098023;28;20445;-69
2021/11/03 05:07:50;;;;;;;6.80;6.20;;;11.20;99.90;;;;;;5099046;28;20461;-69
2021/11/03 05:10:21;;;;;;;8.83;7.20;;;11.20;99.90;;;;;;5098170;28;20456;-69
2021/11/03 05:12:53;;;;;;;8.13;7.33;;;11.20;99.90;;;;;;5096894;27;20797;-69
2021/11/03 05:15:25;;;;;;;7.27;6.57;;;11.20;99.90;;;;;;5102526;28;20456;-68
2021/11/03 05:17:56;;;;;;;7.77;6.97;;;11.20;99.90;;;;;;5096382;28;20470;-69
2021/11/03 05:20:27;;;;;;;7.40;6.70;;;11.20;99.90;;;;;;5101093;28;20536;-68
2021/11/03 05:22:57;;;;;;;8.03;7.30;;;11.20;99.90;;;;;;5098301;28;20465;-69
2021/11/03 05:25:32;;;;;;;8.27;7.00;;;11.20;99.90;;;;;;5097383;28;20464;-69
2021/11/03 05:28:04;;;;;;;8.00;7.20;;;11.20;99.90;;;;;;5110696;28;20994;-69
2021/11/03 05:30:36;;;;;;;7.57;6.87;;;11.10;99.90;;;;;;5101486;28;20461;-68
2021/11/03 05:33:07;;;;;;;7.60;6.90;;;11.20;99.90;;;;;;5103473;28;20808;-69
2021/11/03 05:35:38;;;;;;;7.10;6.50;;;11.20;99.90;;;;;;5091778;28;20538;-68
2021/11/03 05:38:08;;;;;;;7.17;6.57;;;11.20;99.90;;;;;;5106882;28;20457;-68
2021/11/03 05:40:40;;;;;;;7.03;6.33;;;11.10;99.90;;;;;;5100418;28;20454;-69
2021/11/03 05:43:13;;;;;;;6.73;6.20;;;11.10;99.90;;;;;;5090128;28;20458;-68
2021/11/03 05:45:43;;;;;;;7.30;6.70;;;11.20;99.90;;;;;;5091841;28;20461;-68
2021/11/03 05:48:14;;;;;;;7.83;7.13;;;11.10;99.90;;;;;;5100221;28;20455;-68
2021/11/03 05:50:45;;;;;;;7.50;6.33;;;11.10;99.90;;;;;;5097957;28;20842;-69
2021/11/03 05:53:16;;;;;;;7.20;6.50;;;11.10;99.90;;;;;;5103434;28;20464;-67
2021/11/03 05:55:47;;;;;;;8.23;7.43;;;11.00;99.90;;;;;;5101881;28;20842;-69
2021/11/03 05:58:19;;;;;;;7.50;6.80;;;11.00;99.90;;;;;;5107974;28;20473;-69
2021/11/03 06:00:50;;;;;;;7.17;6.57;;;11.00;99.90;;;;;;5097569;28;20499;-70
2021/11/03 06:03:21;;;;;;;6.87;6.27;;;11.00;99.90;;;;;;5105408;28;20486;-68
2021/11/03 06:05:52;;;;;;;7.47;6.67;;;11.00;99.90;;;;;;5091193;28;20445;-69
2021/11/03 06:08:22;;;;;;;7.40;6.70;;;11.00;99.90;;;;;;5110082;28;20480;-68
2021/11/03 06:10:55;;;;;;;7.73;7.00;;;11.00;99.90;;;;;;5108332;28;20756;-69
2021/11/03 06:13:28;;;;;;;7.03;6.40;;;11.00;99.90;;;;;;5109652;28;20456;-69
2021/11/03 06:15:59;;;;;;;7.83;7.13;;;11.00;99.90;;;;;;5092583;28;20525;-69
2021/11/03 06:18:30;;;;;;;7.97;7.27;;;11.00;99.90;;;;;;5100439;28;20496;-69
2021/11/03 06:21:01;;;;;;;7.33;6.73;;;11.00;99.90;;;;;;5093009;28;20445;-69
2021/11/03 06:23:33;;;;;;;7.17;6.57;;;11.00;99.90;;;;;;5107404;28;20886;-69
2021/11/03 06:26:04;;;;;;;7.77;7.07;;;11.00;99.90;;;;;;5091228;28;20485;-68
2021/11/03 06:28:36;;;;;;;7.87;7.00;;;11.00;99.90;;;;;;5098652;28;20453;-69
2021/11/03 06:31:08;;;;;;;7.97;7.27;;;11.00;99.90;;;;;;5108683;28;20446;-69
2021/11/03 06:33:39;;;;;;;7.93;7.23;;;11.00;99.90;;;;;;5098690;28;20826;-69
2021/11/03 06:36:11;;;;;;;7.70;7.00;;;10.90;99.90;;;;;;5095487;28;20456;-69
2021/11/03 06:38:42;;;;;;;7.40;6.70;;;10.90;99.90;;;;;;5099525;28;20992;-69
2021/11/03 06:41:13;;;;;;;7.80;6.70;;;10.90;99.90;;;;;;5098119;28;20455;-68
2021/11/03 06:43:46;;;;;;;8.33;7.23;;;10.90;99.90;;;;;;5100677;28;20456;-69
2021/11/03 06:46:17;;;;;;;8.33;7.53;;;11.00;99.90;;;;;;5108302;28;20545;-68
2021/11/03 06:48:48;;;;;;;9.10;8.20;;;11.00;99.90;;;;;;5104052;28;20456;-68
2021/11/03 06:51:19;;;;;;;8.10;7.40;;;11.00;99.90;;;;;;5096768;28;20478;-69
2021/11/03 06:53:50;;;;;;;8.17;7.47;;;11.00;99.90;;;;;;5107920;28;20461;-68
2021/11/03 06:56:21;;;;;;;7.83;6.93;;;11.10;99.90;;;;;;5102202;28;20530;-68
2021/11/03 06:58:54;;;;;;;8.70;7.90;;;11.10;99.90;;;;;;5103731;28;20454;-68
2021/11/03 07:01:25;;;;;;;8.60;7.70;;;11.10;99.90;;;;;;5097442;28;20513;-68
2021/11/03 07:03:58;;;;;;;8.83;7.83;;;11.10;99.90;;;;;;5088535;28;20503;-68
2021/11/03 07:06:29;;;;;;;9.37;7.23;;;11.10;99.90;;;;;;5095935;28;20743;-68
2021/11/03 07:09:00;;;;;;;8.67;7.87;;;11.10;99.90;;;;;;5100976;28;20477;-68
2021/11/03 07:11:31;;;;;;;8.80;7.63;;;11.20;99.90;;;;;;5107770;28;20548;-67
2021/11/03 07:14:04;;;;;;;9.33;8.43;;;11.20;99.90;;;;;;5109219;28;20493;-68
2021/11/03 07:16:36;;;;;;;8.70;7.80;;;11.20;99.90;;;;;;5107838;28;20816;-69
2021/11/03 07:19:07;;;;;;;7.50;6.80;;;11.20;99.90;;;;;;5107109;28;20657;-67
2021/11/03 07:21:39;;;;;;;8.33;7.53;;;11.20;99.90;;;;;;5098170;28;20462;-69
2021/11/03 07:24:12;;;;;;;7.27;6.57;;;11.30;99.90;;;;;;5095552;28;20489;-70
2021/11/03 07:26:44;;;;;;;7.17;6.53;;;11.20;99.90;;;;;;5102235;28;20488;-70
2021/11/03 07:29:16;;;;;;;7.70;7.10;;;11.20;99.90;;;;;;5104258;28;20523;-69
2021/11/03 07:31:47;;;;;;;7.70;7.00;;;11.30;99.90;;;;;;5093023;28;20569;-67
2021/11/03 07:34:18;;;;;;;7.57;6.87;;;11.30;99.90;;;;;;5106279;28;20529;-68
2021/11/03 07:36:49;;;;;;;7.10;6.37;;;11.30;99.90;;;;;;5103747;28;20569;-68
2021/11/03 07:39:21;;;;;;;7.20;6.50;;;11.30;99.90;;;;;;5103545;28;20970;-68
2021/11/03 07:41:53;;;;;;;8.20;7.40;;;11.30;99.90;;;;;;5104654;28;20454;-68
2021/11/03 07:44:25;;;;;;;7.40;6.70;;;11.30;99.90;;;;;;5110171;28;20482;-70
2021/11/03 07:46:56;;;;;;;7.00;6.30;;;11.30;99.90;;;;;;5100242;28;20447;-69
2021/11/03 07:49:27;;;;;;;7.30;6.60;;;11.30;99.90;;;;;;5106506;28;20567;-70
2021/11/03 07:51:58;;;;;;;7.00;6.33;;;11.40;99.90;;;;;;5112524;28;20481;-70
2021/11/03 07:54:29;;;;;;;6.83;6.17;;;11.30;99.90;;;;;;5109909;28;20902;-68
2021/11/03 07:57:00;;;;;;;7.13;6.53;;;11.30;99.90;;;;;;5110716;28;20477;-67
2021/11/03 07:59:33;;;;;;;6.53;5.93;;;11.30;99.90;;;;;;5096471;28;20647;-68
2021/11/03 08:02:04;;;;;;;7.13;6.53;;;11.30;99.90;;;;;;5112532;28;20507;-67
2021/11/03 08:04:36;;;;;;;6.50;5.90;;;11.30;99.90;;;;;;5094722;28;20447;-67
2021/11/03 08:07:07;;;;;;;7.10;6.40;;;11.20;99.90;;;;;;5112682;28;20474;-67
2021/11/03 08:09:44;;;;;;;6.40;5.87;;;11.20;99.90;;;;;;5110485;28;20867;-67
2021/11/03 08:12:17;;;;;;;7.17;6.47;;;11.20;99.90;;;;;;5112224;28;20485;-67
2021/11/03 08:14:49;;;;;;;7.00;6.40;;;11.20;99.90;;;;;;5099282;28;20525;-68
2021/11/03 08:17:25;;;;;;;6.87;6.23;;;11.20;99.90;;;;;;5097409;28;20553;-68
2021/11/03 08:20:00;;;;;;;7.47;6.77;;;11.20;99.90;;;;;;5090359;28;20501;-68
2021/11/03 08:22:33;;;;;;;8.10;7.30;;;11.30;99.90;;;;;;5099379;28;20914;-68
2021/11/03 08:25:05;;;;;;;7.20;6.47;;;11.30;99.90;;;;;;5097723;28;20454;-68
2021/11/03 08:27:36;;;;;;;6.90;6.20;;;11.30;99.90;;;;;;5101603;28;20446;-69
2021/11/03 08:30:11;;;;;;;6.97;6.30;;;11.20;99.90;;;;;;5097642;28;20533;-68
2021/11/03 08:32:46;;;;;;;7.53;6.83;;;11.20;99.90;;;;;;5094453;28;20967;-68
2021/11/03 08:35:19;;;;;;;7.00;6.40;;;11.20;99.90;;;;;;5110162;28;20532;-70
2021/11/03 08:37:53;;;;;;;6.13;5.63;;;11.20;99.90;;;;;;5099658;28;20482;-68
2021/11/03 08:40:25;;;;;;;7.47;6.80;;;11.20;99.90;;;;;;5102869;28;20973;-68
2021/11/03 08:42:56;;;;;;;8.00;7.20;;;11.20;99.90;;;;;;5093508;28;20449;-68
2021/11/03 08:45:29;;;;;;;7.20;6.50;;;11.30;99.90;;;;;;5103434;28;20450;-68
2021/11/03 08:48:00;;;;;;;7.10;6.33;;;11.30;99.90;;;;;;5105173;28;20479;-68
2021/11/03 08:50:33;;;;;;;7.37;6.53;;;11.20;99.90;;;;;;5101096;28;20441;-68
2021/11/03 08:53:05;;;;;;;7.53;6.83;;;11.20;99.90;;;;;;5099106;28;20447;-68
2021/11/03 08:55:36;;;;;;;7.67;7.07;;;11.20;99.90;;;;;;5099688;28;20483;-69
2021/11/03 08:58:11;;;;;;;7.53;6.83;;;11.20;99.90;;;;;;5098696;28;20514;-69
2021/11/03 09:00:47;;;;;;;8.57;7.83;;;11.20;99.90;;;;;;5098948;28;20514;-68
2021/11/03 09:03:18;;;;;;;7.67;6.97;;;11.20;99.90;;;;;;5094147;28;20478;-68
2021/11/03 09:05:54;;;;;;;8.47;7.67;;;11.00;99.90;;;;;;5102884;28;20452;-68
2021/11/03 09:08:25;;;;;;;10.83;9.83;;;10.90;99.90;;;;;;5110758;28;20499;-69
2021/11/03 09:11:00;;;;;;;11.17;10.17;;;10.90;99.90;;;;;;5093333;28;20574;-69
2021/11/03 09:13:32;;;;;;;12.67;11.37;;;10.90;99.90;;;;;;5110295;28;20481;-69
2021/11/03 09:16:06;;;;;;;11.47;10.47;;;10.80;99.90;;;;;;5102539;28;20482;-69
2021/11/03 09:18:37;;;;;;;14.00;12.73;;;10.80;99.90;;;;;;5098110;28;20483;-70
2021/11/03 09:21:09;;;;;;;13.07;11.87;;;10.70;99.90;;;;;;5089564;28;20516;-69
2021/11/03 09:23:44;;;;;;;14.93;13.43;;;10.70;99.90;;;;;;5099936;28;20502;-70
2021/11/03 09:26:16;;;;;;;14.97;13.37;;;10.80;99.90;;;;;;5111074;28;20481;-69
2021/11/03 09:28:48;;;;;;;16.00;14.53;;;10.70;99.90;;;;;;5105039;28;20858;-70
2021/11/03 09:31:21;;;;;;;16.33;13.73;;;10.70;99.90;;;;;;5105681;28;20518;-69
2021/11/03 09:33:52;;;;;;;15.70;14.20;;;10.60;99.90;;;;;;5089507;28;20451;-69
2021/11/03 09:36:24;;;;;;;14.53;13.23;;;10.50;99.90;;;;;;5106155;28;20966;-70
2021/11/03 09:38:55;;;;;;;14.47;13.03;;;10.60;99.90;;;;;;5091415;28;20514;-70
2021/11/03 09:41:29;;;;;;;16.13;14.63;;;10.50;99.90;;;;;;5098507;28;20457;-69
2021/11/03 09:44:02;;;;;;;15.63;13.93;;;10.50;99.90;;;;;;5095290;28;20502;-71
2021/11/03 09:46:39;;;;;;;16.80;15.20;;;10.50;99.90;;;;;;5110401;28;20573;-70
2021/11/03 09:49:21;;;;;;;15.73;14.13;;;10.60;99.90;;;;;;5092995;28;20453;-72
2021/11/03 09:51:58;;;;;;;15.73;14.23;;;10.50;99.90;;;;;;5110886;28;20453;-77
2021/11/03 09:54:33;;;;;;;14.77;13.33;;;10.50;99.90;;;;;;5099711;28;20494;-70
2021/11/03 09:57:17;;;;;;;15.37;13.77;;;10.50;99.90;;;;;;5102554;28;20477;-72
2021/11/03 09:59:57;;;;;;;15.93;14.30;;;10.40;99.90;;;;;;5094067;28;20560;-70
2021/11/03 10:02:40;;;;;;;16.20;14.60;;;10.40;99.90;;;;;;5093466;28;20513;-70
2021/11/03 10:05:22;;;;;;;14.97;13.40;;;10.30;99.90;;;;;;5100074;28;20465;-69
2021/11/03 10:07:56;;;;;;;14.80;13.30;;;10.20;99.90;;;;;;5107969;28;20485;-69
2021/11/03 10:10:32;;;;;;;14.97;13.57;;;10.20;99.90;;;;;;5103783;28;20456;-69
2021/11/03 10:13:04;;;;;;;15.40;13.00;;;10.20;99.90;;;;;;5103477;28;20449;-80
2021/11/03 10:15:35;;;;;;;14.07;12.87;;;10.10;99.90;;;;;;5102007;28;20474;-70
2021/11/03 10:18:15;;;;;;;14.80;13.40;;;10.10;99.90;;;;;;5097542;28;20504;-71
2021/11/03 10:20:49;;;;;;;13.90;12.50;;;10.10;99.90;;;;;;5096426;28;20892;-70
2021/11/03 10:23:26;;;;;;;13.83;12.43;;;10.10;99.90;;;;;;5097100;28;20926;-70
2021/11/03 10:26:05;;;;;;;12.80;11.60;;;10.10;99.90;;;;;;5098792;28;20496;-70
2021/11/03 10:28:41;;;;;;;13.97;12.57;;;10.00;99.90;;;;;;5105674;28;20473;-70
2021/11/03 10:31:25;;;;;;;14.70;13.27;;;9.90;99.90;;;;;;5104100;28;20570;-70
2021/11/03 10:34:08;;;;;;;15.13;13.47;;;10.00;99.90;;;;;;5104958;28;20504;-73
2021/11/03 10:36:43;;;;;;;15.10;13.50;;;9.90;99.90;;;;;;5110064;28;20516;-73
2021/11/03 10:39:19;;;;;;;14.67;13.17;;;9.90;99.90;;;;;;5108348;28;20542;-72
2021/11/03 10:41:57;;;;;;;16.00;14.37;;;9.80;99.90;;;;;;5110234;28;20491;-70
2021/11/03 10:44:31;;;;;;;15.10;13.70;;;9.80;99.90;;;;;;5097681;28;20920;-72
2021/11/03 10:47:13;;;;;;;15.20;13.60;;;9.70;99.90;;;;;;5106966;28;20481;-70
2021/11/03 10:49:55;;;;;;;14.60;12.15;;;9.70;99.90;;;;;;5102799;28;20444;-70
2021/11/03 10:52:36;;;;;;;12.00;10.80;;;9.70;99.90;;;;;;5105423;28;20247;-70
2021/11/03 10:55:20;;;;;;;13.07;11.77;;;9.70;99.90;;;;;;5104001;28;20615;-70
2021/11/03 10:57:58;;;;;;;13.00;11.60;;;9.90;99.90;;;;;;5109839;28;20457;-73
2021/11/03 11:00:31;;;;;;;12.20;11.00;;;10.00;99.90;;;;;;5087143;28;20264;-70
2021/11/03 11:03:06;;;;;;;12.15;10.90;;;10.00;99.90;;;;;;5097709;28;20481;-69
2021/11/03 11:05:43;;;;;;;12.23;11.02;;;9.90;99.90;;;;;;5104313;28;20230;-69
2021/11/03 11:08:19;;;;;;;12.32;11.02;;;9.80;99.90;;;;;;5105197;28;20238;-69
2021/11/03 11:10:57;;;;;;;12.00;10.87;;;9.80;99.90;;;;;;5095695;28;20250;-69
2021/11/03 11:13:32;;;;;;;12.40;11.10;;;9.90;99.90;;;;;;5093452;28;20490;-69
2021/11/03 11:16:09;;;;;;;11.20;10.00;;;10.00;99.90;;;;;;5092687;28;20208;-71
2021/11/03 11:18:58;;;;;;;13.00;11.57;;;10.00;99.90;;;;;;5102689;28;20540;-71
2021/11/03 11:21:41;;;;;;;11.27;10.00;;;10.00;99.90;;;;;;5101941;28;20251;-74
2021/11/03 11:24:18;;;;;;;12.90;10.90;;;10.10;99.90;;;;;;5105027;28;20493;-73
2021/11/03 11:27:00;;;;;;;12.73;11.40;;;10.10;99.90;;;;;;5101430;28;20611;-70
2021/11/03 11:29:38;;;;;;;10.50;9.40;;;10.00;99.90;;;;;;5100427;28;20543;-70
2021/11/03 11:32:27;;;;;;;12.15;10.95;;;10.00;99.90;;;;;;5107443;28;20489;-70
2021/11/03 11:35:10;;;;;;;12.10;9.95;;;10.10;99.90;;;;;;5103678;28;20212;-72
2021/11/03 11:37:51;;;;;;;11.10;9.93;;;10.20;99.90;;;;;;5101030;28;20247;-72
2021/11/03 11:40:31;;;;;;;10.87;9.77;;;10.30;99.90;;;;;;5106924;28;20266;-69
2021/11/03 11:43:13;;;;;;;10.90;9.80;;;10.40;99.90;;;;;;5101214;28;20493;-70
2021/11/03 11:45:45;;;;;;;11.10;9.80;;;10.40;99.90;;;;;;5109693;28;20449;-70
2021/11/03 11:48:23;;;;;;;10.93;9.87;;;10.30;99.90;;;;;;5111882;28;20485;-70
2021/11/03 11:50:56;;;;;;;11.00;9.25;;;10.20;99.90;;;;;;5111157;28;20471;-71
2021/11/03 11:53:33;;;;;;;11.50;10.30;;;10.10;99.90;;;;;;5110828;28;20239;-70
2021/11/03 11:56:20;;;;;;;10.07;9.10;;;10.00;99.90;;;;;;5106090;28;20977;-74
2021/11/03 11:58:55;;;;;;;12.27;10.57;;;10.00;99.90;;;;;;5105955;28;20562;-70
2021/11/03 12:01:42;;;;;;;11.87;10.33;;;9.90;99.90;;;;;;5096063;28;20505;-69
2021/11/03 12:04:35;;;;;;;11.13;9.90;;;9.80;99.90;;;;;;5097235;28;20450;-70
2021/11/03 12:07:21;;;;;;;12.40;10.40;;;9.80;99.90;;;;;;5102787;28;20453;-69
2021/11/03 12:10:25;;;;;;;11.35;10.15;;;9.90;99.90;;;;;;5110669;28;20449;-73
2021/11/03 12:13:29;;;;;;;10.37;9.37;;;9.90;99.90;;;;;;5100088;28;20271;-71
2021/11/03 12:16:25;;;;;;;11.97;10.77;;;10.00;99.90;;;;;;5095043;28;20976;-71
2021/11/03 12:18:57;;;;;;;11.23;10.13;;;10.10;99.90;;;;;;5109889;28;20446;-71
2021/11/03 12:22:00;;;;;;;11.87;9.40;;;10.10;99.90;;;;;;5112409;28;20816;-70
2021/11/03 12:24:35;;;;;;;10.53;9.43;;;10.10;99.90;;;;;;5091960;28;20492;-69
2021/11/03 12:27:37;;;;;;;12.10;10.90;;;10.20;99.90;;;;;;5099963;28;20471;-71
2021/11/03 12:30:38;;;;;;;13.30;10.60;;;10.40;99.90;;;;;;5097494;28;20566;-70
2021/11/03 12:33:11;;;;;;;12.60;11.30;;;10.50;99.90;;;;;;5092642;28;20954;-71
2021/11/03 12:36:11;;;;;;;14.43;11.87;;;10.60;99.90;;;;;;5100197;28;20533;-70
2021/11/03 12:39:06;;;;;;;12.83;10.97;;;10.60;99.90;;;;;;5109261;28;20869;-72
2021/11/03 12:41:43;;;;;;;14.10;12.30;;;10.60;99.90;;;;;;5092978;28;20538;-71
2021/11/03 12:44:31;;;;;;;12.90;11.57;;;10.60;99.90;;;;;;5107132;28;20502;-74
2021/11/03 12:47:02;;;;;;;14.00;12.60;;;10.60;99.90;;;;;;5097254;28;20619;-70
2021/11/03 12:49:33;;;;;;;13.37;10.90;;;10.60;99.90;;;;;;5097423;28;20451;-70
2021/11/03 12:52:11;;;;;;;14.03;11.40;;;10.60;99.90;;;;;;5104987;28;20548;-70
2021/11/03 12:54:53;;;;;;;12.10;10.80;;;10.60;99.90;;;;;;5102166;28;20541;-72
2021/11/03 12:57:27;;;;;;;13.23;11.30;;;10.60;99.90;;;;;;5113749;28;20508;-70
2021/11/03 13:00:07;;;;;;;13.20;11.80;;;10.50;99.90;;;;;;5095935;28;20485;-69
2021/11/03 13:02:41;;;;;;;14.70;11.40;;;10.40;99.90;;;;;;5094958;28;20517;-70
2021/11/03 13:05:21;;;;;;;14.68;12.07;;;10.30;99.90;;;;;;5106187;28;20454;-69
2021/11/03 13:08:22;;;;;;;13.37;11.13;;;10.30;99.90;;;;;;5097021;28;20249;-73
2021/11/03 13:11:07;;;;;;;13.67;11.03;;;10.40;99.90;;;;;;5109835;28;20915;-71
2021/11/03 13:13:49;;;;;;;12.70;11.40;;;10.40;99.90;;;;;;5108999;28;20493;-71